YCCY

Cloncurry Airport

Cloncurry, Australia
METAR YCCY 170300Z AUTO 28006KT //// // ////// 29/M04 Q1014
Observed Flight Rules
Aug-17 @ 03:00 UTC (an hour ago)
Wind
280° at 6 knots
Temperatures Readings
Current 29°C / 84°F
Dewpoint -4°C / 25°F
Humidity 11%
Altimeter 29.94" Hg
Pressure 1014 hPa
Elevation 570
METAR YCCY 170300Z AUTO 28006KT //// // ////// 29/M04 Q1014
Observed Flight Rules
Aug-17 @ 03:00 UTC
(an hour ago)
Wind
280° at 6 knots
Temperature Dewpoint
29°C / 84°F -4°C / 25°F
Humidity Altimeter Pressure
11% 29.94" Hg 1014 hPa